createdAt,value
2022-09-04T00:00:00.195Z,101377.56
2022-09-04T00:02:44.751Z,101376.84
2022-09-04T00:05:22.769Z,101366.84
2022-09-04T00:08:01.227Z,101374.66
2022-09-04T00:10:30.796Z,101379.88
2022-09-04T00:13:02.265Z,101378.97
2022-09-04T00:15:33.214Z,101377.13
2022-09-04T00:18:11.657Z,101372.53
2022-09-04T00:20:50.170Z,101373.34
2022-09-04T00:23:19.599Z,101372.59
2022-09-04T00:25:57.752Z,101373.03
2022-09-04T00:28:30.038Z,101376.16
2022-09-04T00:31:03.180Z,101382.16
2022-09-04T00:33:38.217Z,101385.41
2022-09-04T00:36:05.325Z,101390.97
2022-09-04T00:38:36.335Z,101389.00
2022-09-04T00:41:02.665Z,101389.00
2022-09-04T00:43:47.877Z,101393.03
2022-09-04T00:46:21.071Z,101386.94
2022-09-04T00:49:06.161Z,101390.25
2022-09-04T00:51:44.853Z,101391.78
2022-09-04T00:54:37.828Z,101394.28
2022-09-04T00:57:16.161Z,101391.59
2022-09-04T00:59:45.615Z,101387.53
2022-09-04T01:02:23.935Z,101397.50
2022-09-04T01:05:07.478Z,101393.13
2022-09-04T01:07:38.286Z,101389.22
2022-09-04T01:10:27.746Z,101393.13
2022-09-04T01:13:06.788Z,101383.25
2022-09-04T01:15:41.243Z,101396.81
2022-09-04T01:18:28.111Z,101401.06
2022-09-04T01:21:30.810Z,101395.47
2022-09-04T01:24:07.889Z,101387.00
2022-09-04T01:26:34.236Z,101395.22
2022-09-04T01:29:15.535Z,101398.34
2022-09-04T01:31:52.996Z,101410.13
2022-09-04T01:34:22.204Z,101405.31
2022-09-04T01:37:00.834Z,101401.31
2022-09-04T01:39:29.425Z,101400.41
2022-09-04T01:42:18.114Z,101404.44
2022-09-04T01:44:44.509Z,101401.84
2022-09-04T01:47:32.330Z,101398.47
2022-09-04T01:50:20.544Z,101393.75
2022-09-04T01:53:05.776Z,101397.59
2022-09-04T01:55:36.881Z,101398.72
2022-09-04T01:58:29.470Z,101399.94
2022-09-04T02:01:00.512Z,101400.78
2022-09-04T02:03:39.189Z,101404.63
2022-09-04T02:06:16.705Z,101407.47
2022-09-04T02:08:43.364Z,101403.81
2022-09-04T02:11:26.563Z,101407.84
2022-09-04T02:13:56.443Z,101411.81
2022-09-04T02:16:26.628Z,101405.75
2022-09-04T02:19:02.344Z,101409.41
2022-09-04T02:21:44.538Z,101407.47
2022-09-04T02:24:23.725Z,101407.16
2022-09-04T02:26:58.877Z,101405.63
2022-09-04T02:29:25.240Z,101407.91
2022-09-04T02:32:12.843Z,101395.25
2022-09-04T02:34:57.221Z,101393.38
2022-09-04T02:37:35.688Z,101404.81
2022-09-04T02:40:18.268Z,101398.84
2022-09-04T02:42:52.294Z,101401.16
2022-09-04T02:45:30.115Z,101399.53
2022-09-04T02:48:13.738Z,101398.66
2022-09-04T02:50:46.113Z,101401.00
2022-09-04T02:53:30.974Z,101414.06
2022-09-04T02:56:16.210Z,101411.63
2022-09-04T02:58:54.734Z,101415.28
2022-09-04T03:01:24.268Z,101417.97
2022-09-04T03:03:59.900Z,101414.00
2022-09-04T03:06:45.931Z,101416.66
2022-09-04T03:09:15.409Z,101419.47
2022-09-04T03:11:45.283Z,101417.91
2022-09-04T03:14:18.803Z,101420.69
2022-09-04T03:16:51.950Z,101421.44
2022-09-04T03:19:21.029Z,101431.44
2022-09-04T03:21:53.474Z,101429.78
2022-09-04T03:24:38.576Z,101427.28
2022-09-04T03:27:06.751Z,101428.91
2022-09-04T03:29:51.579Z,101426.50
2022-09-04T03:32:21.378Z,101426.81
2022-09-04T03:34:47.801Z,101424.00
2022-09-04T03:37:21.178Z,101426.28
2022-09-04T03:39:47.510Z,101420.78
2022-09-04T03:42:25.115Z,101425.50
2022-09-04T03:45:08.882Z,101420.09
2022-09-04T03:47:41.377Z,101414.84
2022-09-04T03:50:18.319Z,101432.50
2022-09-04T03:52:58.089Z,101427.56
2022-09-04T03:55:30.362Z,101419.94
2022-09-04T03:58:14.113Z,101417.25
2022-09-04T04:00:46.374Z,101411.53
2022-09-04T04:03:32.708Z,101417.19
2022-09-04T04:06:06.313Z,101417.72
2022-09-04T04:08:35.690Z,101423.25
2022-09-04T04:11:08.253Z,101423.63
2022-09-04T04:13:52.859Z,101416.16
2022-09-04T04:16:24.634Z,101423.56
2022-09-04T04:18:54.754Z,101430.41
2022-09-04T04:21:56.333Z,101433.28
2022-09-04T04:24:41.532Z,101430.72
2022-09-04T04:27:10.936Z,101440.13
2022-09-04T04:29:55.738Z,101435.72
2022-09-04T04:32:24.227Z,101434.88
2022-09-04T04:35:19.988Z,101438.13
2022-09-04T04:37:51.698Z,101442.00
2022-09-04T04:40:18.040Z,101442.44
2022-09-04T04:43:05.437Z,101445.13
2022-09-04T04:45:50.105Z,101452.19
2022-09-04T04:48:24.174Z,101453.41
2022-09-04T04:51:00.303Z,101450.50
2022-09-04T04:53:46.935Z,101452.66
2022-09-04T04:56:32.113Z,101452.25
2022-09-04T04:59:20.589Z,101466.75
2022-09-04T05:01:59.468Z,101459.44
2022-09-04T05:04:29.958Z,101467.38
2022-09-04T05:07:06.940Z,101475.41
2022-09-04T05:09:54.909Z,101476.94
2022-09-04T05:12:21.237Z,101484.59
2022-09-04T05:14:54.516Z,101491.41
2022-09-04T05:17:30.061Z,101499.25
2022-09-04T05:20:15.279Z,101495.75
2022-09-04T05:22:49.394Z,101504.66
2022-09-04T05:25:15.744Z,101517.38
2022-09-04T05:27:42.059Z,101515.53
2022-09-04T05:30:31.055Z,101523.38
2022-09-04T05:33:03.182Z,101528.53
2022-09-04T05:35:40.450Z,101525.56
2022-09-04T05:38:14.067Z,101538.53
2022-09-04T05:40:46.658Z,101532.63
2022-09-04T05:43:19.232Z,101534.88
2022-09-04T05:45:52.831Z,101531.09
2022-09-04T05:48:27.875Z,101537.72
2022-09-04T05:50:54.235Z,101531.31
2022-09-04T05:53:39.948Z,101536.91
2022-09-04T05:56:18.082Z,101547.38
2022-09-04T05:59:02.940Z,101551.59
2022-09-04T06:01:39.178Z,101554.38
2022-09-04T06:04:13.581Z,101556.59
2022-09-04T06:06:58.389Z,101562.22
2022-09-04T06:09:43.419Z,101567.44
2022-09-04T06:12:28.626Z,101561.56
2022-09-04T06:15:13.752Z,101568.84
2022-09-04T06:17:40.071Z,101579.53
2022-09-04T06:20:25.187Z,101587.44
2022-09-04T06:23:10.360Z,101580.47
2022-09-04T06:25:42.052Z,101574.56
2022-09-04T06:28:08.371Z,101579.03
2022-09-04T06:30:55.073Z,101571.66
2022-09-04T06:33:41.691Z,101572.31
2022-09-04T06:36:34.562Z,101586.28
2022-09-04T06:39:07.019Z,101596.97
2022-09-04T06:41:54.708Z,101587.50
2022-09-04T06:44:35.237Z,101579.78
2022-09-04T06:47:07.543Z,101583.06
2022-09-04T06:49:46.111Z,101589.41
2022-09-04T06:52:23.426Z,101600.88
2022-09-04T06:54:53.940Z,101593.00
2022-09-04T06:57:43.371Z,101591.06
2022-09-04T07:00:11.646Z,101595.22
2022-09-04T07:02:48.289Z,101590.44
2022-09-04T07:05:19.870Z,101600.69
2022-09-04T07:07:46.234Z,101598.53
2022-09-04T07:10:16.255Z,101608.16
2022-09-04T07:12:48.668Z,101601.31
2022-09-04T07:15:28.983Z,101603.88
2022-09-04T07:18:14.088Z,101604.38
2022-09-04T07:20:54.812Z,101616.59
2022-09-04T07:23:39.358Z,101620.22
2022-09-04T07:26:05.706Z,101619.81
2022-09-04T07:28:43.976Z,101617.16
2022-09-04T07:31:10.436Z,101629.91
2022-09-04T07:33:51.822Z,101636.13
2022-09-04T07:36:31.970Z,101629.59
2022-09-04T07:39:07.169Z,101627.69
2022-09-04T07:41:42.226Z,101627.78
2022-09-04T07:44:29.140Z,101631.38
2022-09-04T07:47:12.239Z,101631.97
2022-09-04T07:49:54.605Z,101639.38
2022-09-04T07:52:21.412Z,101633.94
2022-09-04T07:54:47.738Z,101635.66
2022-09-04T07:57:21.205Z,101636.13
2022-09-04T07:59:53.634Z,101629.88
2022-09-04T08:02:20.008Z,101641.31
2022-09-04T08:05:06.641Z,101633.00
2022-09-04T08:07:33.007Z,101642.66
2022-09-04T08:10:18.135Z,101639.94
2022-09-04T08:12:58.798Z,101643.56
2022-09-04T08:15:35.472Z,101644.88
2022-09-04T08:18:07.337Z,101650.59
2022-09-04T08:20:42.291Z,101651.44
2022-09-04T08:23:24.445Z,101654.81
2022-09-04T08:26:14.585Z,101652.09
2022-09-04T08:28:59.706Z,101656.13
2022-09-04T08:31:47.129Z,101657.81
2022-09-04T08:34:39.790Z,101663.81
2022-09-04T08:37:13.846Z,101657.94
2022-09-04T08:40:04.137Z,101656.06
2022-09-04T08:42:36.609Z,101658.09
2022-09-04T08:45:09.053Z,101660.13
2022-09-04T08:47:35.492Z,101668.09
2022-09-04T08:50:23.723Z,101670.16
2022-09-04T08:53:10.399Z,101666.66
2022-09-04T08:55:39.815Z,101662.03
2022-09-04T08:58:06.141Z,101667.97
2022-09-04T09:00:38.585Z,101679.13
2022-09-04T09:03:07.932Z,101681.19
2022-09-04T09:05:55.162Z,101683.97
2022-09-04T09:08:34.184Z,101680.44
2022-09-04T09:11:03.786Z,101676.56
2022-09-04T09:13:51.696Z,101679.03
2022-09-04T09:16:22.581Z,101680.66
2022-09-04T09:19:07.616Z,101685.47
2022-09-04T09:21:53.869Z,101685.16
2022-09-04T09:24:38.969Z,101683.16
2022-09-04T09:27:11.737Z,101670.91
2022-09-04T09:29:43.861Z,101674.53
2022-09-04T09:32:19.332Z,101673.78
2022-09-04T09:34:52.108Z,101675.34
2022-09-04T09:37:21.273Z,101686.53
2022-09-04T09:39:47.627Z,101684.19
2022-09-04T09:42:15.314Z,101681.09
2022-09-04T09:44:53.836Z,101682.72
2022-09-04T09:47:39.007Z,101684.84
2022-09-04T09:50:06.126Z,101686.06
2022-09-04T09:52:57.536Z,101683.34
2022-09-04T09:55:49.978Z,101691.78
2022-09-04T09:58:19.308Z,101681.19
2022-09-04T10:01:08.286Z,101682.81
2022-09-04T10:03:54.594Z,101688.84
2022-09-04T10:06:30.106Z,101696.06
2022-09-04T10:09:09.595Z,101698.44
2022-09-04T10:12:06.868Z,101696.97
2022-09-04T10:14:36.125Z,101689.03
2022-09-04T10:17:05.470Z,101679.94
2022-09-04T10:19:56.245Z,101683.50
2022-09-04T10:22:37.885Z,101689.53
2022-09-04T10:25:04.231Z,101689.56
2022-09-04T10:27:49.348Z,101698.72
2022-09-04T10:30:20.993Z,101699.16
2022-09-04T10:33:10.725Z,101701.13
2022-09-04T10:35:41.530Z,101699.91
2022-09-04T10:38:20.844Z,101698.75
2022-09-04T10:40:59.453Z,101693.19
2022-09-04T10:43:44.358Z,101694.78
2022-09-04T10:46:29.353Z,101684.66
2022-09-04T10:49:07.264Z,101687.91
2022-09-04T10:51:52.303Z,101699.91
2022-09-04T10:54:38.337Z,101692.38
2022-09-04T10:57:14.718Z,101693.94
2022-09-04T10:59:47.158Z,101699.16
2022-09-04T11:02:33.128Z,101694.00
2022-09-04T11:05:06.990Z,101699.16
2022-09-04T11:07:56.717Z,101692.06
2022-09-04T11:10:38.236Z,101698.34
2022-09-04T11:13:04.556Z,101689.22
2022-09-04T11:15:34.055Z,101693.19
2022-09-04T11:18:12.701Z,101698.00
2022-09-04T11:21:07.751Z,101693.94
2022-09-04T11:23:34.156Z,101682.41
2022-09-04T11:26:29.888Z,101684.44
2022-09-04T11:28:57.086Z,101678.03
2022-09-04T11:31:23.480Z,101677.25
2022-09-04T11:34:01.777Z,101678.06
2022-09-04T11:36:46.820Z,101671.72
2022-09-04T11:39:32.825Z,101679.69
2022-09-04T11:42:20.375Z,101674.91
2022-09-04T11:45:05.713Z,101676.53
2022-09-04T11:47:41.257Z,101668.97
2022-09-04T11:50:25.967Z,101674.97
2022-09-04T11:53:11.322Z,101669.81
2022-09-04T11:55:37.685Z,101674.22
2022-09-04T11:58:22.532Z,101661.94
2022-09-04T12:01:09.966Z,101666.28
2022-09-04T12:03:53.327Z,101669.06
2022-09-04T12:06:22.825Z,101666.34
2022-09-04T12:09:12.199Z,101667.50
2022-09-04T12:11:57.210Z,101658.38
2022-09-04T12:14:35.366Z,101661.56
2022-09-04T12:17:15.537Z,101665.13
2022-09-04T12:19:44.959Z,101671.13
2022-09-04T12:22:20.491Z,101660.75
2022-09-04T12:24:56.170Z,101652.38
2022-09-04T12:27:28.879Z,101663.94
2022-09-04T12:30:14.123Z,101657.59
2022-09-04T12:32:59.295Z,101657.59
2022-09-04T12:35:31.994Z,101659.56
2022-09-04T12:38:01.525Z,101659.97
2022-09-04T12:40:44.941Z,101661.53
2022-09-04T12:43:17.483Z,101655.63
2022-09-04T12:46:04.425Z,101654.00
2022-09-04T12:48:49.047Z,101658.75
2022-09-04T12:51:26.484Z,101659.91
2022-09-04T12:54:02.293Z,101661.09
2022-09-04T12:56:40.861Z,101653.97
2022-09-04T12:59:23.482Z,101653.94
2022-09-04T13:01:50.046Z,101663.88
2022-09-04T13:04:35.241Z,101656.34
2022-09-04T13:07:27.211Z,101672.28
2022-09-04T13:10:02.442Z,101672.66
2022-09-04T13:12:31.820Z,101663.13
2022-09-04T13:14:58.162Z,101677.06
2022-09-04T13:17:43.580Z,101673.13
2022-09-04T13:20:12.988Z,101673.91
2022-09-04T13:22:48.433Z,101673.91
2022-09-04T13:25:35.223Z,101676.31
2022-09-04T13:28:07.836Z,101675.16
2022-09-04T13:30:36.104Z,101679.84
2022-09-04T13:33:14.767Z,101679.09
2022-09-04T13:36:00.126Z,101680.28
2022-09-04T13:38:27.072Z,101675.97
2022-09-04T13:40:54.882Z,101681.97
2022-09-04T13:43:24.419Z,101686.34
2022-09-04T13:45:53.769Z,101684.75
2022-09-04T13:48:39.867Z,101685.53
2022-09-04T13:51:18.252Z,101678.00
2022-09-04T13:53:44.570Z,101685.53
2022-09-04T13:56:15.545Z,101681.97
2022-09-04T13:58:51.475Z,101679.19
2022-09-04T14:01:25.028Z,101680.78
2022-09-04T14:03:53.420Z,101675.22
2022-09-04T14:06:21.153Z,101674.03
2022-09-04T14:09:04.874Z,101681.19
2022-09-04T14:11:36.065Z,101679.19
2022-09-04T14:14:21.217Z,101681.19
2022-09-04T14:16:50.222Z,101680.00
2022-09-04T14:19:17.292Z,101686.38
2022-09-04T14:22:05.423Z,101685.16
2022-09-04T14:24:38.574Z,101686.34
2022-09-04T14:27:12.378Z,101680.78
2022-09-04T14:29:46.702Z,101685.94
2022-09-04T14:32:13.124Z,101679.16
2022-09-04T14:34:50.027Z,101677.59
2022-09-04T14:37:36.072Z,101677.19
2022-09-04T14:40:09.895Z,101674.47
2022-09-04T14:42:52.055Z,101672.88
2022-09-04T14:45:25.628Z,101672.84
2022-09-04T14:47:56.661Z,101686.78
2022-09-04T14:50:30.231Z,101688.00
2022-09-04T14:53:04.773Z,101680.81
2022-09-04T14:55:32.896Z,101687.56
2022-09-04T14:58:19.596Z,101686.34
2022-09-04T15:01:13.411Z,101694.72
2022-09-04T15:03:39.876Z,101697.50
2022-09-04T15:06:16.065Z,101695.13
2022-09-04T15:08:44.358Z,101685.94
2022-09-04T15:11:31.179Z,101693.47
2022-09-04T15:14:04.834Z,101689.88
2022-09-04T15:16:40.337Z,101696.66
2022-09-04T15:19:18.753Z,101697.44
2022-09-04T15:21:57.240Z,101695.47
2022-09-04T15:24:48.636Z,101691.88
2022-09-04T15:27:18.054Z,101692.66
2022-09-04T15:29:53.500Z,101691.84
2022-09-04T15:32:30.098Z,101685.50
2022-09-04T15:35:16.476Z,101703.75
2022-09-04T15:37:48.549Z,101701.41
2022-09-04T15:40:27.194Z,101705.00
2022-09-04T15:42:54.020Z,101700.63
2022-09-04T15:45:26.398Z,101699.41
2022-09-04T15:48:04.801Z,101695.84
2022-09-04T15:50:34.328Z,101695.84
2022-09-04T15:53:12.925Z,101695.84
2022-09-04T15:55:41.260Z,101695.84
2022-09-04T15:58:08.722Z,101695.47
2022-09-04T16:00:37.054Z,101695.03
2022-09-04T16:03:12.808Z,101701.03
2022-09-04T16:05:45.140Z,101689.47
2022-09-04T16:08:23.555Z,101696.63
2022-09-04T16:10:54.848Z,101702.94
2022-09-04T16:13:24.272Z,101705.28
2022-09-04T16:15:53.196Z,101715.66
2022-09-04T16:18:22.252Z,101717.25
2022-09-04T16:20:51.397Z,101710.84
2022-09-04T16:23:27.190Z,101704.06
2022-09-04T16:25:56.595Z,101707.97
2022-09-04T16:28:26.357Z,101707.16
2022-09-04T16:30:57.809Z,101705.06
2022-09-04T16:33:28.414Z,101713.41
2022-09-04T16:35:59.594Z,101714.59
2022-09-04T16:38:32.185Z,101722.06
2022-09-04T16:41:01.492Z,101724.09
2022-09-04T16:43:28.641Z,101718.41
2022-09-04T16:46:07.756Z,101719.34
2022-09-04T16:48:52.522Z,101723.97
2022-09-04T16:51:25.076Z,101723.97
2022-09-04T16:54:29.135Z,101729.03
2022-09-04T16:57:12.307Z,101731.34
2022-09-04T16:59:53.005Z,101731.28
2022-09-04T17:02:30.753Z,101733.66
2022-09-04T17:05:10.278Z,101742.03
2022-09-04T17:07:40.080Z,101727.34
2022-09-04T17:10:15.511Z,101735.97
2022-09-04T17:12:52.576Z,101740.75
2022-09-04T17:15:25.248Z,101732.25
2022-09-04T17:17:53.868Z,101735.84
2022-09-04T17:20:33.646Z,101736.75
2022-09-04T17:29:03.639Z,101732.47
2022-09-04T17:29:18.363Z,101732.03
2022-09-04T17:29:34.473Z,101736.81
2022-09-04T17:31:57.401Z,101741.66
2022-09-04T17:40:34.602Z,101738.13
2022-09-04T17:40:54.773Z,101740.88
2022-09-04T17:40:57.405Z,101740.44
2022-09-04T17:43:32.913Z,101743.28
2022-09-04T17:46:08.649Z,101746.81
2022-09-04T17:48:40.277Z,101755.63
2022-09-04T17:51:09.672Z,101753.63
2022-09-04T17:53:38.303Z,101756.41
2022-09-04T17:56:09.966Z,101758.38
2022-09-04T17:58:54.503Z,101752.59
2022-09-04T18:01:25.097Z,101750.56
2022-09-04T18:04:20.235Z,101763.50
2022-09-04T18:07:53.174Z,101758.19
2022-09-04T18:10:01.013Z,101752.72
2022-09-04T18:12:39.404Z,101768.97
2022-09-04T18:15:33.843Z,101762.56
2022-09-04T18:18:09.947Z,101752.38
2022-09-04T18:20:51.697Z,101770.19
2022-09-04T18:23:21.469Z,101777.81
2022-09-04T18:25:59.225Z,101780.06
2022-09-04T18:28:29.436Z,101785.13
2022-09-04T18:37:06.362Z,101783.28
2022-09-04T18:37:17.607Z,101777.69
2022-09-04T18:37:26.215Z,101781.50
2022-09-04T18:39:59.316Z,101784.59
2022-09-04T18:48:19.112Z,101787.97
2022-09-04T18:50:38.514Z,101780.69
2022-09-04T18:50:46.368Z,101789.16
2022-09-04T18:51:31.393Z,101793.88
2022-09-04T18:53:58.282Z,101789.97
2022-09-04T18:56:24.746Z,101796.75
2022-09-04T18:58:51.133Z,101791.09
2022-09-04T19:01:27.233Z,101793.50
2022-09-04T19:03:59.778Z,101790.09
2022-09-04T19:06:39.632Z,101796.06
2022-09-04T19:09:14.718Z,101794.50
2022-09-04T19:11:45.268Z,101787.59
2022-09-04T19:14:18.810Z,101787.31
2022-09-04T19:16:55.010Z,101798.06
2022-09-04T19:19:30.675Z,101799.72
2022-09-04T19:22:18.405Z,101792.44
2022-09-04T19:24:59.461Z,101798.38
2022-09-04T19:27:40.980Z,101794.44
2022-09-04T19:30:25.127Z,101796.91
2022-09-04T19:33:02.838Z,101791.63
2022-09-04T19:35:30.048Z,101787.72
2022-09-04T19:42:46.011Z,101796.16
2022-09-04T19:46:01.660Z,101788.09
2022-09-04T19:46:13.656Z,101788.28
2022-09-04T19:46:51.627Z,101781.88
2022-09-04T19:51:38.818Z,101789.97
2022-09-04T19:53:31.295Z,101791.69
2022-09-04T19:55:45.625Z,101789.16
2022-09-04T19:58:17.517Z,101786.53
2022-09-04T20:00:52.609Z,101784.47
2022-09-04T20:03:32.311Z,101787.66
2022-09-04T20:06:20.768Z,101794.19
2022-09-04T20:09:14.559Z,101798.06
2022-09-04T20:12:01.280Z,101794.78
2022-09-04T20:14:30.912Z,101790.44
2022-09-04T20:17:15.842Z,101796.19
2022-09-04T20:19:45.860Z,101799.72
2022-09-04T20:22:15.289Z,101788.50
2022-09-04T20:25:01.345Z,101800.81
2022-09-04T20:27:36.420Z,101804.31
2022-09-04T20:30:32.061Z,101807.72
2022-09-04T20:33:05.625Z,101806.56
2022-09-04T20:35:32.863Z,101819.31
2022-09-04T20:38:30.295Z,101814.72
2022-09-04T20:41:00.032Z,101818.66
2022-09-04T20:43:38.384Z,101811.66
2022-09-04T20:51:51.207Z,101823.09
2022-09-04T20:52:52.241Z,101820.78
2022-09-04T20:52:55.661Z,101819.69
2022-09-04T20:54:58.343Z,101818.16
2022-09-04T21:01:43.086Z,101823.28
2022-09-04T21:03:22.695Z,101829.88
2022-09-04T21:03:28.871Z,101830.22
2022-09-04T21:06:11.196Z,101825.78
2022-09-04T21:09:04.063Z,101826.38
2022-09-04T21:11:40.605Z,101835.03
2022-09-04T21:14:10.834Z,101846.19
2022-09-04T21:16:40.230Z,101841.53
2022-09-04T21:19:29.123Z,101848.38
2022-09-04T21:22:01.937Z,101843.56
2022-09-04T21:24:37.607Z,101850.69
2022-09-04T21:27:36.238Z,101844.31
2022-09-04T21:30:02.760Z,101856.97
2022-09-04T21:32:38.252Z,101850.31
2022-09-04T21:35:07.693Z,101858.72
2022-09-04T21:37:34.031Z,101857.50
2022-09-04T21:40:43.267Z,101859.47
2022-09-04T21:43:17.650Z,101864.25
2022-09-04T21:45:58.106Z,101865.00
2022-09-04T21:48:39.561Z,101861.47
2022-09-04T21:51:40.006Z,101876.53
2022-09-04T21:54:10.280Z,101873.75
2022-09-04T22:02:29.179Z,101871.81
2022-09-04T22:02:40.284Z,101867.03
2022-09-04T22:02:51.427Z,101869.88
2022-09-04T22:05:21.686Z,101873.56
2022-09-04T22:13:28.412Z,101872.28
2022-09-04T22:13:28.827Z,101873.94
2022-09-04T22:13:51.191Z,101872.06
2022-09-04T22:16:37.263Z,101874.66
2022-09-04T22:19:17.290Z,101879.53
2022-09-04T22:21:46.665Z,101870.84
2022-09-04T22:24:25.179Z,101877.66
2022-09-04T22:27:12.554Z,101869.28
2022-09-04T22:29:48.345Z,101871.56
2022-09-04T22:32:33.629Z,101870.44
2022-09-04T22:34:59.991Z,101872.09
2022-09-04T22:37:29.403Z,101877.00
2022-09-04T22:40:04.984Z,101884.31
2022-09-04T22:42:43.618Z,101879.19
2022-09-04T22:45:16.042Z,101881.66
2022-09-04T22:48:05.425Z,101880.75
2022-09-04T22:50:49.590Z,101880.94
2022-09-04T22:53:25.181Z,101882.53
2022-09-04T22:56:23.255Z,101874.53
2022-09-04T22:59:26.222Z,101873.63
2022-09-04T23:02:13.551Z,101870.69
2022-09-04T23:04:52.641Z,101872.81
2022-09-04T23:13:41.907Z,101873.97
2022-09-04T23:13:44.395Z,101868.47
2022-09-04T23:13:59.329Z,101871.91
2022-09-04T23:16:05.870Z,101867.31
2022-09-04T23:21:07.172Z,101873.88
2022-09-04T23:26:35.966Z,101876.09
2022-09-04T23:26:41.906Z,101878.44
2022-09-04T23:27:28.765Z,101885.06
2022-09-04T23:30:02.213Z,101886.06
2022-09-04T23:32:31.601Z,101883.25
2022-09-04T23:35:15.782Z,101887.41
2022-09-04T23:38:01.130Z,101890.19
2022-09-04T23:40:27.566Z,101885.16
2022-09-04T23:43:14.686Z,101895.13
2022-09-04T23:46:23.528Z,101892.50
2022-09-04T23:48:52.878Z,101900.53
2022-09-04T23:51:27.936Z,101901.41
2022-09-04T23:53:58.872Z,101896.44
2022-09-04T23:56:46.179Z,101882.16
2022-09-04T23:59:37.624Z,101878.28
